sensor_id;sensor_type;location;lat;lon;timestamp;P1;durP1;ratioP1;P2;durP2;ratioP2
73697;SDS011;62004;42.566;23.164;2023-04-25T00:00:16;3.15;;;2.85;;
73697;SDS011;62004;42.566;23.164;2023-04-25T00:02:42;3.25;;;2.95;;
73697;SDS011;62004;42.566;23.164;2023-04-25T00:05:07;3.67;;;3.37;;
73697;SDS011;62004;42.566;23.164;2023-04-25T00:07:33;4.72;;;3.28;;
73697;SDS011;62004;42.566;23.164;2023-04-25T00:09:58;3.00;;;2.70;;
73697;SDS011;62004;42.566;23.164;2023-04-25T00:12:24;3.43;;;3.13;;
73697;SDS011;62004;42.566;23.164;2023-04-25T00:14:49;3.93;;;2.83;;
73697;SDS011;62004;42.566;23.164;2023-04-25T00:17:17;4.30;;;3.40;;
73697;SDS011;62004;42.566;23.164;2023-04-25T00:19:44;4.07;;;3.65;;
73697;SDS011;62004;42.566;23.164;2023-04-25T00:22:11;2.65;;;2.45;;
73697;SDS011;62004;42.566;23.164;2023-04-25T00:24:36;3.42;;;2.55;;
73697;SDS011;62004;42.566;23.164;2023-04-25T00:27:02;2.70;;;2.50;;
73697;SDS011;62004;42.566;23.164;2023-04-25T00:29:27;5.23;;;2.70;;
73697;SDS011;62004;42.566;23.164;2023-04-25T00:31:52;2.30;;;2.10;;
73697;SDS011;62004;42.566;23.164;2023-04-25T00:34:17;1.87;;;1.77;;
73697;SDS011;62004;42.566;23.164;2023-04-25T00:36:43;2.13;;;2.03;;
73697;SDS011;62004;42.566;23.164;2023-04-25T00:39:08;1.30;;;1.20;;
73697;SDS011;62004;42.566;23.164;2023-04-25T00:41:33;0.93;;;0.80;;
73697;SDS011;62004;42.566;23.164;2023-04-25T00:43:59;1.87;;;0.83;;
73697;SDS011;62004;42.566;23.164;2023-04-25T00:46:24;0.98;;;0.95;;
73697;SDS011;62004;42.566;23.164;2023-04-25T00:48:49;1.47;;;0.83;;
73697;SDS011;62004;42.566;23.164;2023-04-25T00:51:16;2.50;;;1.40;;
73697;SDS011;62004;42.566;23.164;2023-04-25T00:53:44;1.98;;;1.80;;
73697;SDS011;62004;42.566;23.164;2023-04-25T00:56:09;2.22;;;2.03;;
73697;SDS011;62004;42.566;23.164;2023-04-25T00:58:34;2.70;;;2.22;;
73697;SDS011;62004;42.566;23.164;2023-04-25T01:01:00;2.40;;;2.20;;
73697;SDS011;62004;42.566;23.164;2023-04-25T01:03:25;2.25;;;2.05;;
73697;SDS011;62004;42.566;23.164;2023-04-25T01:05:53;2.90;;;2.63;;
73697;SDS011;62004;42.566;23.164;2023-04-25T01:08:19;3.35;;;2.88;;
73697;SDS011;62004;42.566;23.164;2023-04-25T01:10:46;4.07;;;3.60;;
73697;SDS011;62004;42.566;23.164;2023-04-25T01:13:11;3.00;;;2.70;;
73697;SDS011;62004;42.566;23.164;2023-04-25T01:15:36;3.58;;;3.28;;
73697;SDS011;62004;42.566;23.164;2023-04-25T01:18:02;3.57;;;3.27;;
73697;SDS011;62004;42.566;23.164;2023-04-25T01:20:27;5.05;;;3.15;;
73697;SDS011;62004;42.566;23.164;2023-04-25T01:22:54;3.40;;;3.10;;
73697;SDS011;62004;42.566;23.164;2023-04-25T01:25:20;3.35;;;3.05;;
73697;SDS011;62004;42.566;23.164;2023-04-25T01:27:45;3.85;;;3.13;;
73697;SDS011;62004;42.566;23.164;2023-04-25T01:30:11;2.85;;;2.55;;
73697;SDS011;62004;42.566;23.164;2023-04-25T01:32:37;4.15;;;2.50;;
73697;SDS011;62004;42.566;23.164;2023-04-25T01:35:06;5.45;;;3.60;;
73697;SDS011;62004;42.566;23.164;2023-04-25T01:37:37;4.15;;;3.75;;
73697;SDS011;62004;42.566;23.164;2023-04-25T01:40:03;4.88;;;3.55;;
73697;SDS011;62004;42.566;23.164;2023-04-25T01:42:30;6.43;;;4.60;;
73697;SDS011;62004;42.566;23.164;2023-04-25T01:44:55;7.05;;;5.65;;
73697;SDS011;62004;42.566;23.164;2023-04-25T01:47:20;6.93;;;5.20;;
73697;SDS011;62004;42.566;23.164;2023-04-25T01:49:46;6.30;;;5.13;;
73697;SDS011;62004;42.566;23.164;2023-04-25T01:52:11;7.03;;;5.73;;
73697;SDS011;62004;42.566;23.164;2023-04-25T01:54:36;5.50;;;4.57;;
73697;SDS011;62004;42.566;23.164;2023-04-25T01:57:01;5.87;;;4.87;;
73697;SDS011;62004;42.566;23.164;2023-04-25T01:59:27;4.67;;;3.87;;
73697;SDS011;62004;42.566;23.164;2023-04-25T02:01:52;6.77;;;5.17;;
73697;SDS011;62004;42.566;23.164;2023-04-25T02:04:17;5.93;;;4.20;;
73697;SDS011;62004;42.566;23.164;2023-04-25T02:06:42;4.50;;;4.10;;
73697;SDS011;62004;42.566;23.164;2023-04-25T02:09:08;5.30;;;3.93;;
73697;SDS011;62004;42.566;23.164;2023-04-25T02:11:33;4.70;;;3.93;;
73697;SDS011;62004;42.566;23.164;2023-04-25T02:13:58;5.47;;;4.97;;
73697;SDS011;62004;42.566;23.164;2023-04-25T02:16:23;5.23;;;4.27;;
73697;SDS011;62004;42.566;23.164;2023-04-25T02:18:50;5.82;;;4.53;;
73697;SDS011;62004;42.566;23.164;2023-04-25T02:21:17;4.53;;;3.35;;
73697;SDS011;62004;42.566;23.164;2023-04-25T02:23:43;5.22;;;4.47;;
73697;SDS011;62004;42.566;23.164;2023-04-25T02:26:08;4.13;;;3.17;;
73697;SDS011;62004;42.566;23.164;2023-04-25T02:28:33;5.97;;;4.20;;
73697;SDS011;62004;42.566;23.164;2023-04-25T02:30:58;5.40;;;4.22;;
73697;SDS011;62004;42.566;23.164;2023-04-25T02:33:24;6.17;;;4.20;;
73697;SDS011;62004;42.566;23.164;2023-04-25T02:35:49;5.13;;;3.67;;
73697;SDS011;62004;42.566;23.164;2023-04-25T02:38:14;4.97;;;4.03;;
73697;SDS011;62004;42.566;23.164;2023-04-25T02:40:40;4.37;;;3.80;;
73697;SDS011;62004;42.566;23.164;2023-04-25T02:43:05;4.28;;;3.67;;
73697;SDS011;62004;42.566;23.164;2023-04-25T02:45:30;3.83;;;3.40;;
73697;SDS011;62004;42.566;23.164;2023-04-25T02:47:56;5.23;;;4.57;;
73697;SDS011;62004;42.566;23.164;2023-04-25T02:50:21;3.97;;;3.58;;
73697;SDS011;62004;42.566;23.164;2023-04-25T02:52:46;3.90;;;3.23;;
73697;SDS011;62004;42.566;23.164;2023-04-25T02:55:12;6.13;;;4.60;;
73697;SDS011;62004;42.566;23.164;2023-04-25T02:57:37;7.68;;;4.20;;
73697;SDS011;62004;42.566;23.164;2023-04-25T03:00:03;5.80;;;3.70;;
73697;SDS011;62004;42.566;23.164;2023-04-25T03:02:30;5.47;;;3.88;;
73697;SDS011;62004;42.566;23.164;2023-04-25T03:04:55;5.20;;;4.67;;
73697;SDS011;62004;42.566;23.164;2023-04-25T03:07:20;4.70;;;3.90;;
73697;SDS011;62004;42.566;23.164;2023-04-25T03:09:45;4.87;;;3.80;;
73697;SDS011;62004;42.566;23.164;2023-04-25T03:12:10;4.00;;;3.67;;
73697;SDS011;62004;42.566;23.164;2023-04-25T03:14:36;5.63;;;3.33;;
73697;SDS011;62004;42.566;23.164;2023-04-25T03:17:01;4.20;;;3.60;;
73697;SDS011;62004;42.566;23.164;2023-04-25T03:19:26;4.53;;;3.37;;
73697;SDS011;62004;42.566;23.164;2023-04-25T03:21:51;5.60;;;4.23;;
73697;SDS011;62004;42.566;23.164;2023-04-25T03:24:18;6.40;;;3.72;;
73697;SDS011;62004;42.566;23.164;2023-04-25T03:26:43;6.13;;;3.77;;
73697;SDS011;62004;42.566;23.164;2023-04-25T03:29:08;6.17;;;4.00;;
73697;SDS011;62004;42.566;23.164;2023-04-25T03:31:34;4.05;;;3.65;;
73697;SDS011;62004;42.566;23.164;2023-04-25T03:33:59;5.18;;;4.03;;
73697;SDS011;62004;42.566;23.164;2023-04-25T03:36:24;5.90;;;4.03;;
73697;SDS011;62004;42.566;23.164;2023-04-25T03:38:50;4.90;;;3.60;;
73697;SDS011;62004;42.566;23.164;2023-04-25T03:41:15;7.70;;;4.10;;
73697;SDS011;62004;42.566;23.164;2023-04-25T03:43:40;4.67;;;3.40;;
73697;SDS011;62004;42.566;23.164;2023-04-25T03:46:06;5.60;;;4.00;;
73697;SDS011;62004;42.566;23.164;2023-04-25T03:48:31;6.93;;;3.23;;
73697;SDS011;62004;42.566;23.164;2023-04-25T03:50:56;6.20;;;4.07;;
73697;SDS011;62004;42.566;23.164;2023-04-25T03:53:21;7.63;;;4.40;;
73697;SDS011;62004;42.566;23.164;2023-04-25T03:55:47;8.38;;;4.53;;
73697;SDS011;62004;42.566;23.164;2023-04-25T03:58:12;8.65;;;4.57;;
73697;SDS011;62004;42.566;23.164;2023-04-25T04:00:37;10.53;;;5.07;;
73697;SDS011;62004;42.566;23.164;2023-04-25T04:03:02;11.67;;;5.00;;
73697;SDS011;62004;42.566;23.164;2023-04-25T04:05:28;13.80;;;4.13;;
73697;SDS011;62004;42.566;23.164;2023-04-25T04:07:54;8.48;;;4.97;;
73697;SDS011;62004;42.566;23.164;2023-04-25T04:10:19;12.65;;;6.30;;
73697;SDS011;62004;42.566;23.164;2023-04-25T04:12:44;7.75;;;5.35;;
73697;SDS011;62004;42.566;23.164;2023-04-25T04:15:10;7.80;;;4.90;;
73697;SDS011;62004;42.566;23.164;2023-04-25T04:17:35;6.28;;;5.05;;
73697;SDS011;62004;42.566;23.164;2023-04-25T04:20:00;7.33;;;5.57;;
73697;SDS011;62004;42.566;23.164;2023-04-25T04:22:26;8.23;;;5.03;;
73697;SDS011;62004;42.566;23.164;2023-04-25T04:24:51;7.97;;;5.07;;
73697;SDS011;62004;42.566;23.164;2023-04-25T04:27:21;8.48;;;4.93;;
73697;SDS011;62004;42.566;23.164;2023-04-25T04:29:47;10.50;;;4.82;;
73697;SDS011;62004;42.566;23.164;2023-04-25T04:32:13;8.15;;;4.07;;
73697;SDS011;62004;42.566;23.164;2023-04-25T04:34:38;8.00;;;4.50;;
73697;SDS011;62004;42.566;23.164;2023-04-25T04:37:04;5.03;;;3.50;;
73697;SDS011;62004;42.566;23.164;2023-04-25T04:39:30;7.78;;;5.57;;
73697;SDS011;62004;42.566;23.164;2023-04-25T04:41:55;4.60;;;4.10;;
73697;SDS011;62004;42.566;23.164;2023-04-25T04:44:20;7.10;;;4.88;;
73697;SDS011;62004;42.566;23.164;2023-04-25T04:46:45;5.00;;;4.20;;
73697;SDS011;62004;42.566;23.164;2023-04-25T04:49:11;5.85;;;3.85;;
73697;SDS011;62004;42.566;23.164;2023-04-25T04:51:38;3.95;;;3.55;;
73697;SDS011;62004;42.566;23.164;2023-04-25T04:54:03;5.75;;;4.03;;
73697;SDS011;62004;42.566;23.164;2023-04-25T04:56:29;5.30;;;3.88;;
73697;SDS011;62004;42.566;23.164;2023-04-25T04:58:56;5.00;;;3.95;;
73697;SDS011;62004;42.566;23.164;2023-04-25T05:01:21;7.60;;;4.72;;
73697;SDS011;62004;42.566;23.164;2023-04-25T05:03:47;5.30;;;4.05;;
73697;SDS011;62004;42.566;23.164;2023-04-25T05:06:12;8.37;;;4.20;;
73697;SDS011;62004;42.566;23.164;2023-04-25T05:08:37;5.63;;;3.77;;
73697;SDS011;62004;42.566;23.164;2023-04-25T05:11:02;5.57;;;3.97;;
73697;SDS011;62004;42.566;23.164;2023-04-25T05:13:28;6.30;;;4.38;;
73697;SDS011;62004;42.566;23.164;2023-04-25T05:15:53;5.70;;;4.53;;
73697;SDS011;62004;42.566;23.164;2023-04-25T05:18:18;6.00;;;5.40;;
73697;SDS011;62004;42.566;23.164;2023-04-25T05:20:43;7.10;;;4.37;;
73697;SDS011;62004;42.566;23.164;2023-04-25T05:23:09;4.95;;;4.10;;
73697;SDS011;62004;42.566;23.164;2023-04-25T05:25:34;7.18;;;4.25;;
73697;SDS011;62004;42.566;23.164;2023-04-25T05:27:59;5.72;;;5.05;;
73697;SDS011;62004;42.566;23.164;2023-04-25T05:30:25;4.13;;;3.70;;
73697;SDS011;62004;42.566;23.164;2023-04-25T05:32:50;7.32;;;4.22;;
73697;SDS011;62004;42.566;23.164;2023-04-25T05:35:15;8.32;;;4.95;;
73697;SDS011;62004;42.566;23.164;2023-04-25T05:37:41;5.10;;;3.97;;
73697;SDS011;62004;42.566;23.164;2023-04-25T05:40:06;6.67;;;5.10;;
73697;SDS011;62004;42.566;23.164;2023-04-25T05:42:32;6.60;;;5.00;;
73697;SDS011;62004;42.566;23.164;2023-04-25T05:44:57;7.18;;;4.90;;
73697;SDS011;62004;42.566;23.164;2023-04-25T05:47:22;7.00;;;4.83;;
73697;SDS011;62004;42.566;23.164;2023-04-25T05:49:48;6.40;;;4.73;;
73697;SDS011;62004;42.566;23.164;2023-04-25T05:52:13;7.20;;;5.37;;
73697;SDS011;62004;42.566;23.164;2023-04-25T05:54:40;3.72;;;3.33;;
73697;SDS011;62004;42.566;23.164;2023-04-25T05:57:05;5.80;;;4.10;;
73697;SDS011;62004;42.566;23.164;2023-04-25T05:59:30;4.27;;;3.20;;
73697;SDS011;62004;42.566;23.164;2023-04-25T06:01:55;5.90;;;4.00;;
73697;SDS011;62004;42.566;23.164;2023-04-25T06:04:20;4.70;;;4.17;;
73697;SDS011;62004;42.566;23.164;2023-04-25T06:06:46;5.63;;;4.10;;
73697;SDS011;62004;42.566;23.164;2023-04-25T06:09:11;5.63;;;4.13;;
73697;SDS011;62004;42.566;23.164;2023-04-25T06:11:36;5.07;;;3.20;;
73697;SDS011;62004;42.566;23.164;2023-04-25T06:14:01;4.33;;;3.40;;
73697;SDS011;62004;42.566;23.164;2023-04-25T06:16:27;3.83;;;3.38;;
73697;SDS011;62004;42.566;23.164;2023-04-25T06:18:53;5.10;;;4.20;;
73697;SDS011;62004;42.566;23.164;2023-04-25T06:21:18;4.70;;;3.67;;
73697;SDS011;62004;42.566;23.164;2023-04-25T06:23:43;6.93;;;3.80;;
73697;SDS011;62004;42.566;23.164;2023-04-25T06:26:08;7.33;;;4.90;;
73697;SDS011;62004;42.566;23.164;2023-04-25T06:28:34;7.83;;;4.50;;
73697;SDS011;62004;42.566;23.164;2023-04-25T06:30:59;9.63;;;4.82;;
73697;SDS011;62004;42.566;23.164;2023-04-25T06:33:24;8.77;;;5.22;;
73697;SDS011;62004;42.566;23.164;2023-04-25T06:35:50;7.20;;;5.30;;
73697;SDS011;62004;42.566;23.164;2023-04-25T06:38:15;7.50;;;5.20;;
73697;SDS011;62004;42.566;23.164;2023-04-25T06:40:40;8.73;;;5.53;;
73697;SDS011;62004;42.566;23.164;2023-04-25T06:43:06;7.80;;;5.40;;
73697;SDS011;62004;42.566;23.164;2023-04-25T06:45:31;8.57;;;5.27;;
73697;SDS011;62004;42.566;23.164;2023-04-25T06:47:56;7.30;;;4.85;;
73697;SDS011;62004;42.566;23.164;2023-04-25T06:50:21;8.57;;;5.20;;
73697;SDS011;62004;42.566;23.164;2023-04-25T06:52:47;6.00;;;4.70;;
73697;SDS011;62004;42.566;23.164;2023-04-25T06:55:12;8.87;;;5.00;;
73697;SDS011;62004;42.566;23.164;2023-04-25T06:57:37;6.38;;;3.70;;
73697;SDS011;62004;42.566;23.164;2023-04-25T07:00:03;5.13;;;4.60;;
73697;SDS011;62004;42.566;23.164;2023-04-25T07:02:30;5.57;;;3.97;;
73697;SDS011;62004;42.566;23.164;2023-04-25T07:04:55;6.55;;;4.00;;
73697;SDS011;62004;42.566;23.164;2023-04-25T07:07:24;6.28;;;3.90;;
73697;SDS011;62004;42.566;23.164;2023-04-25T07:09:49;6.40;;;4.20;;
73697;SDS011;62004;42.566;23.164;2023-04-25T07:12:15;7.53;;;4.82;;
73697;SDS011;62004;42.566;23.164;2023-04-25T07:14:40;5.67;;;3.80;;
73697;SDS011;62004;42.566;23.164;2023-04-25T07:17:05;6.03;;;3.67;;
73697;SDS011;62004;42.566;23.164;2023-04-25T07:19:31;5.55;;;3.22;;
73697;SDS011;62004;42.566;23.164;2023-04-25T07:21:57;6.60;;;3.88;;
73697;SDS011;62004;42.566;23.164;2023-04-25T07:24:23;5.17;;;4.23;;
73697;SDS011;62004;42.566;23.164;2023-04-25T07:26:48;5.50;;;3.30;;
73697;SDS011;62004;42.566;23.164;2023-04-25T07:29:13;7.13;;;3.70;;
73697;SDS011;62004;42.566;23.164;2023-04-25T07:31:38;4.00;;;3.60;;
73697;SDS011;62004;42.566;23.164;2023-04-25T07:34:04;5.45;;;4.22;;
73697;SDS011;62004;42.566;23.164;2023-04-25T07:36:30;5.85;;;3.55;;
73697;SDS011;62004;42.566;23.164;2023-04-25T07:38:55;3.45;;;2.95;;
73697;SDS011;62004;42.566;23.164;2023-04-25T07:41:21;4.17;;;3.77;;
73697;SDS011;62004;42.566;23.164;2023-04-25T07:43:46;4.37;;;3.30;;
73697;SDS011;62004;42.566;23.164;2023-04-25T07:46:11;4.20;;;3.07;;
73697;SDS011;62004;42.566;23.164;2023-04-25T07:48:36;2.92;;;2.53;;
73697;SDS011;62004;42.566;23.164;2023-04-25T07:51:02;2.70;;;2.50;;
73697;SDS011;62004;42.566;23.164;2023-04-25T07:53:29;5.68;;;2.45;;
73697;SDS011;62004;42.566;23.164;2023-04-25T07:55:54;4.47;;;2.00;;
73697;SDS011;62004;42.566;23.164;2023-04-25T07:58:20;2.70;;;2.10;;
73697;SDS011;62004;42.566;23.164;2023-04-25T08:00:47;1.52;;;1.38;;
73697;SDS011;62004;42.566;23.164;2023-04-25T08:03:12;3.63;;;1.85;;
73697;SDS011;62004;42.566;23.164;2023-04-25T08:05:37;2.50;;;1.40;;
73697;SDS011;62004;42.566;23.164;2023-04-25T08:08:03;3.27;;;1.70;;
73697;SDS011;62004;42.566;23.164;2023-04-25T08:10:29;2.22;;;2.03;;
73697;SDS011;62004;42.566;23.164;2023-04-25T08:12:54;1.75;;;1.65;;
73697;SDS011;62004;42.566;23.164;2023-04-25T08:15:20;4.87;;;2.27;;
73697;SDS011;62004;42.566;23.164;2023-04-25T08:17:45;3.57;;;1.50;;
73697;SDS011;62004;42.566;23.164;2023-04-25T08:20:10;2.63;;;1.37;;
73697;SDS011;62004;42.566;23.164;2023-04-25T08:22:36;3.25;;;1.98;;
73697;SDS011;62004;42.566;23.164;2023-04-25T08:25:01;3.90;;;2.15;;
73697;SDS011;62004;42.566;23.164;2023-04-25T08:27:26;2.15;;;1.95;;
73697;SDS011;62004;42.566;23.164;2023-04-25T08:29:52;3.40;;;2.10;;
73697;SDS011;62004;42.566;23.164;2023-04-25T08:32:18;3.97;;;2.05;;
73697;SDS011;62004;42.566;23.164;2023-04-25T08:34:43;3.65;;;1.63;;
73697;SDS011;62004;42.566;23.164;2023-04-25T08:37:09;2.28;;;2.00;;
73697;SDS011;62004;42.566;23.164;2023-04-25T08:39:35;1.77;;;1.65;;
73697;SDS011;62004;42.566;23.164;2023-04-25T08:42:00;1.58;;;1.27;;
73697;SDS011;62004;42.566;23.164;2023-04-25T08:44:25;1.95;;;1.60;;
73697;SDS011;62004;42.566;23.164;2023-04-25T08:46:51;2.78;;;1.17;;
73697;SDS011;62004;42.566;23.164;2023-04-25T08:49:17;4.10;;;1.63;;
73697;SDS011;62004;42.566;23.164;2023-04-25T08:51:46;2.28;;;1.45;;
73697;SDS011;62004;42.566;23.164;2023-04-25T08:54:13;2.15;;;1.50;;
73697;SDS011;62004;42.566;23.164;2023-04-25T08:56:39;1.88;;;1.20;;
73697;SDS011;62004;42.566;23.164;2023-04-25T08:59:05;1.80;;;1.17;;
73697;SDS011;62004;42.566;23.164;2023-04-25T09:01:33;1.27;;;1.05;;
73697;SDS011;62004;42.566;23.164;2023-04-25T09:03:59;2.17;;;1.02;;
73697;SDS011;62004;42.566;23.164;2023-04-25T09:06:24;1.42;;;1.05;;
73697;SDS011;62004;42.566;23.164;2023-04-25T09:08:49;2.80;;;2.53;;
73697;SDS011;62004;42.566;23.164;2023-04-25T09:11:15;1.17;;;0.82;;
73697;SDS011;62004;42.566;23.164;2023-04-25T09:13:40;1.00;;;0.90;;
73697;SDS011;62004;42.566;23.164;2023-04-25T09:16:05;0.63;;;0.60;;
73697;SDS011;62004;42.566;23.164;2023-04-25T09:18:31;1.02;;;0.93;;
73697;SDS011;62004;42.566;23.164;2023-04-25T09:21:07;0.73;;;0.60;;
73697;SDS011;62004;42.566;23.164;2023-04-25T09:23:44;0.57;;;0.45;;
73697;SDS011;62004;42.566;23.164;2023-04-25T09:26:09;1.05;;;0.70;;
73697;SDS011;62004;42.566;23.164;2023-04-25T09:28:35;0.82;;;0.50;;
73697;SDS011;62004;42.566;23.164;2023-04-25T09:31:01;1.40;;;0.57;;
73697;SDS011;62004;42.566;23.164;2023-04-25T09:33:27;0.68;;;0.68;;
73697;SDS011;62004;42.566;23.164;2023-04-25T09:35:53;1.60;;;0.73;;
73697;SDS011;62004;42.566;23.164;2023-04-25T09:38:20;1.40;;;0.80;;
73697;SDS011;62004;42.566;23.164;2023-04-25T09:40:46;2.47;;;1.15;;
73697;SDS011;62004;42.566;23.164;2023-04-25T09:43:20;1.00;;;0.60;;
73697;SDS011;62004;42.566;23.164;2023-04-25T09:45:46;1.27;;;0.85;;
73697;SDS011;62004;42.566;23.164;2023-04-25T09:48:16;1.20;;;0.80;;
73697;SDS011;62004;42.566;23.164;2023-04-25T09:50:42;1.42;;;0.82;;
73697;SDS011;62004;42.566;23.164;2023-04-25T09:53:07;0.93;;;0.73;;
73697;SDS011;62004;42.566;23.164;2023-04-25T09:55:33;0.68;;;0.68;;
73697;SDS011;62004;42.566;23.164;2023-04-25T09:58:00;0.47;;;0.45;;
73697;SDS011;62004;42.566;23.164;2023-04-25T10:00:28;1.42;;;0.70;;
73697;SDS011;62004;42.566;23.164;2023-04-25T10:02:54;0.57;;;0.50;;
73697;SDS011;62004;42.566;23.164;2023-04-25T10:05:19;0.98;;;0.30;;
73697;SDS011;62004;42.566;23.164;2023-04-25T10:07:45;0.47;;;0.40;;
73697;SDS011;62004;42.566;23.164;2023-04-25T10:10:11;1.58;;;0.60;;
73697;SDS011;62004;42.566;23.164;2023-04-25T10:12:37;1.48;;;0.50;;
73697;SDS011;62004;42.566;23.164;2023-04-25T10:15:04;0.90;;;0.52;;
73697;SDS011;62004;42.566;23.164;2023-04-25T10:17:31;0.95;;;0.40;;
73697;SDS011;62004;42.566;23.164;2023-04-25T10:19:56;0.80;;;0.45;;
73697;SDS011;62004;42.566;23.164;2023-04-25T10:24:50;1.90;;;0.52;;
73697;SDS011;62004;42.566;23.164;2023-04-25T10:27:18;1.40;;;0.43;;
73697;SDS011;62004;42.566;23.164;2023-04-25T10:29:44;0.90;;;0.68;;
73697;SDS011;62004;42.566;23.164;2023-04-25T10:32:09;1.70;;;0.43;;
73697;SDS011;62004;42.566;23.164;2023-04-25T10:34:44;1.08;;;0.45;;
73697;SDS011;62004;42.566;23.164;2023-04-25T10:37:12;2.40;;;0.55;;
73697;SDS011;62004;42.566;23.164;2023-04-25T10:39:38;2.15;;;0.88;;
73697;SDS011;62004;42.566;23.164;2023-04-25T10:42:03;3.22;;;0.95;;
73697;SDS011;62004;42.566;23.164;2023-04-25T10:44:29;1.33;;;0.70;;
73697;SDS011;62004;42.566;23.164;2023-04-25T10:46:55;2.83;;;0.73;;
73697;SDS011;62004;42.566;23.164;2023-04-25T10:49:32;1.50;;;0.77;;
73697;SDS011;62004;42.566;23.164;2023-04-25T10:57:07;0.93;;;0.65;;
73697;SDS011;62004;42.566;23.164;2023-04-25T10:59:51;1.15;;;0.70;;
73697;SDS011;62004;42.566;23.164;2023-04-25T11:02:16;1.47;;;0.90;;
73697;SDS011;62004;42.566;23.164;2023-04-25T11:04:41;1.33;;;1.17;;
73697;SDS011;62004;42.566;23.164;2023-04-25T11:07:15;0.95;;;0.63;;
73697;SDS011;62004;42.566;23.164;2023-04-25T11:09:42;1.30;;;0.45;;
73697;SDS011;62004;42.566;23.164;2023-04-25T11:12:10;0.70;;;0.60;;
73697;SDS011;62004;42.566;23.164;2023-04-25T11:14:36;1.38;;;0.30;;
73697;SDS011;62004;42.566;23.164;2023-04-25T11:17:02;0.65;;;0.50;;
73697;SDS011;62004;42.566;23.164;2023-04-25T11:19:27;0.35;;;0.35;;
73697;SDS011;62004;42.566;23.164;2023-04-25T11:21:57;2.55;;;0.43;;
73697;SDS011;62004;42.566;23.164;2023-04-25T11:24:29;0.95;;;0.95;;
73697;SDS011;62004;42.566;23.164;2023-04-25T11:26:55;0.77;;;0.55;;
73697;SDS011;62004;42.566;23.164;2023-04-25T11:29:26;1.05;;;0.40;;
73697;SDS011;62004;42.566;23.164;2023-04-25T11:31:51;0.50;;;0.32;;
73697;SDS011;62004;42.566;23.164;2023-04-25T11:34:17;0.38;;;0.32;;
73697;SDS011;62004;42.566;23.164;2023-04-25T11:36:43;2.95;;;1.00;;
73697;SDS011;62004;42.566;23.164;2023-04-25T11:39:09;4.40;;;1.13;;
73697;SDS011;62004;42.566;23.164;2023-04-25T11:41:36;0.55;;;0.40;;
73697;SDS011;62004;42.566;23.164;2023-04-25T11:44:02;2.47;;;0.60;;
73697;SDS011;62004;42.566;23.164;2023-04-25T11:46:27;2.25;;;0.52;;
73697;SDS011;62004;42.566;23.164;2023-04-25T11:48:53;3.23;;;0.50;;
73697;SDS011;62004;42.566;23.164;2023-04-25T11:51:20;1.20;;;0.40;;
73697;SDS011;62004;42.566;23.164;2023-04-25T11:53:46;2.13;;;0.43;;
73697;SDS011;62004;42.566;23.164;2023-04-25T11:56:12;4.05;;;0.57;;
73697;SDS011;62004;42.566;23.164;2023-04-25T12:01:26;2.03;;;0.65;;
73697;SDS011;62004;42.566;23.164;2023-04-25T12:03:52;1.98;;;0.80;;
73697;SDS011;62004;42.566;23.164;2023-04-25T12:06:17;1.10;;;0.73;;
73697;SDS011;62004;42.566;23.164;2023-04-25T12:08:58;2.60;;;0.83;;
73697;SDS011;62004;42.566;23.164;2023-04-25T12:11:24;2.00;;;0.70;;
73697;SDS011;62004;42.566;23.164;2023-04-25T12:13:51;0.60;;;0.52;;
73697;SDS011;62004;42.566;23.164;2023-04-25T12:16:17;0.52;;;0.40;;
73697;SDS011;62004;42.566;23.164;2023-04-25T12:18:42;0.47;;;0.47;;
73697;SDS011;62004;42.566;23.164;2023-04-25T12:21:07;0.57;;;0.50;;
73697;SDS011;62004;42.566;23.164;2023-04-25T12:23:34;1.73;;;0.55;;
73697;SDS011;62004;42.566;23.164;2023-04-25T12:26:03;0.43;;;0.38;;
73697;SDS011;62004;42.566;23.164;2023-04-25T12:28:28;1.00;;;0.40;;
73697;SDS011;62004;42.566;23.164;2023-04-25T12:31:01;1.17;;;0.43;;
73697;SDS011;62004;42.566;23.164;2023-04-25T12:33:31;1.45;;;0.57;;
73697;SDS011;62004;42.566;23.164;2023-04-25T12:35:56;0.77;;;0.30;;
73697;SDS011;62004;42.566;23.164;2023-04-25T12:38:28;0.40;;;0.30;;
73697;SDS011;62004;42.566;23.164;2023-04-25T12:40:58;0.30;;;0.28;;
73697;SDS011;62004;42.566;23.164;2023-04-25T12:43:24;0.52;;;0.52;;
73697;SDS011;62004;42.566;23.164;2023-04-25T12:45:53;0.70;;;0.45;;
73697;SDS011;62004;42.566;23.164;2023-04-25T12:48:18;0.40;;;0.30;;
73697;SDS011;62004;42.566;23.164;2023-04-25T12:50:44;0.30;;;0.30;;
73697;SDS011;62004;42.566;23.164;2023-04-25T12:53:09;1.33;;;0.30;;
73697;SDS011;62004;42.566;23.164;2023-04-25T12:55:38;0.85;;;0.40;;
73697;SDS011;62004;42.566;23.164;2023-04-25T12:58:11;0.77;;;0.52;;
73697;SDS011;62004;42.566;23.164;2023-04-25T13:00:36;0.63;;;0.55;;
73697;SDS011;62004;42.566;23.164;2023-04-25T13:03:01;0.45;;;0.45;;
73697;SDS011;62004;42.566;23.164;2023-04-25T13:05:28;2.17;;;0.55;;
73697;SDS011;62004;42.566;23.164;2023-04-25T13:07:53;0.63;;;0.52;;
73697;SDS011;62004;42.566;23.164;2023-04-25T13:10:19;0.70;;;0.43;;
73697;SDS011;62004;42.566;23.164;2023-04-25T13:12:44;0.63;;;0.63;;
73697;SDS011;62004;42.566;23.164;2023-04-25T13:15:11;0.50;;;0.45;;
73697;SDS011;62004;42.566;23.164;2023-04-25T13:17:37;0.93;;;0.60;;
73697;SDS011;62004;42.566;23.164;2023-04-25T13:20:03;0.50;;;0.40;;
73697;SDS011;62004;42.566;23.164;2023-04-25T13:22:30;0.90;;;0.40;;
73697;SDS011;62004;42.566;23.164;2023-04-25T13:24:56;1.65;;;0.50;;
73697;SDS011;62004;42.566;23.164;2023-04-25T13:27:21;2.07;;;0.87;;
73697;SDS011;62004;42.566;23.164;2023-04-25T13:29:46;1.08;;;0.65;;
73697;SDS011;62004;42.566;23.164;2023-04-25T13:32:12;1.95;;;0.82;;
73697;SDS011;62004;42.566;23.164;2023-04-25T13:34:37;0.73;;;0.63;;
73697;SDS011;62004;42.566;23.164;2023-04-25T13:37:03;1.10;;;0.80;;
73697;SDS011;62004;42.566;23.164;2023-04-25T13:39:28;2.42;;;0.65;;
73697;SDS011;62004;42.566;23.164;2023-04-25T13:41:53;1.08;;;0.65;;
73697;SDS011;62004;42.566;23.164;2023-04-25T13:44:19;1.63;;;0.60;;
73697;SDS011;62004;42.566;23.164;2023-04-25T13:46:44;1.20;;;0.50;;
73697;SDS011;62004;42.566;23.164;2023-04-25T13:49:11;1.00;;;0.68;;
73697;SDS011;62004;42.566;23.164;2023-04-25T13:51:36;2.63;;;0.85;;
73697;SDS011;62004;42.566;23.164;2023-04-25T13:54:01;0.80;;;0.80;;
73697;SDS011;62004;42.566;23.164;2023-04-25T13:56:27;0.93;;;0.55;;
73697;SDS011;62004;42.566;23.164;2023-04-25T13:58:52;0.68;;;0.63;;
73697;SDS011;62004;42.566;23.164;2023-04-25T14:01:18;1.42;;;0.52;;
73697;SDS011;62004;42.566;23.164;2023-04-25T14:03:43;0.50;;;0.40;;
73697;SDS011;62004;42.566;23.164;2023-04-25T14:06:09;1.95;;;1.00;;
73697;SDS011;62004;42.566;23.164;2023-04-25T14:08:34;1.38;;;0.80;;
73697;SDS011;62004;42.566;23.164;2023-04-25T14:10:59;1.05;;;0.65;;
73697;SDS011;62004;42.566;23.164;2023-04-25T14:13:25;1.80;;;1.17;;
73697;SDS011;62004;42.566;23.164;2023-04-25T14:15:52;1.52;;;1.15;;
73697;SDS011;62004;42.566;23.164;2023-04-25T14:18:17;1.23;;;0.90;;
73697;SDS011;62004;42.566;23.164;2023-04-25T14:20:43;3.00;;;1.65;;
73697;SDS011;62004;42.566;23.164;2023-04-25T14:23:09;2.00;;;1.20;;
73697;SDS011;62004;42.566;23.164;2023-04-25T14:25:34;2.07;;;1.80;;
73697;SDS011;62004;42.566;23.164;2023-04-25T14:28:01;3.25;;;1.73;;
73697;SDS011;62004;42.566;23.164;2023-04-25T14:30:26;3.10;;;1.25;;
73697;SDS011;62004;42.566;23.164;2023-04-25T14:32:51;2.25;;;1.20;;
73697;SDS011;62004;42.566;23.164;2023-04-25T14:35:17;2.00;;;1.77;;